createdAt,value
2023-03-05T00:14:59.799Z,2.81
2023-03-05T00:30:00.409Z,2.79
2023-03-05T00:45:01.453Z,2.75
2023-03-05T01:00:01.620Z,2.75
2023-03-05T01:15:02.197Z,2.63
2023-03-05T01:30:03.244Z,2.52
2023-03-05T01:45:03.846Z,2.28
2023-03-05T02:00:04.493Z,1.99
2023-03-05T02:15:04.713Z,1.80
2023-03-05T02:30:05.005Z,1.69
2023-03-05T02:45:05.432Z,1.68
2023-03-05T03:00:06.198Z,1.80
2023-03-05T03:15:06.743Z,1.80
2023-03-05T03:30:07.272Z,1.87
2023-03-05T03:45:07.892Z,1.73
2023-03-05T04:00:08.509Z,1.65
2023-03-05T04:15:09.106Z,1.54
2023-03-05T04:30:09.768Z,1.44
2023-03-05T04:45:10.257Z,1.50
2023-03-05T05:00:10.864Z,1.45
2023-03-05T05:15:11.520Z,1.36
2023-03-05T05:30:12.097Z,1.23
2023-03-05T05:45:12.727Z,1.22
2023-03-05T06:00:13.311Z,1.22
2023-03-05T06:15:13.909Z,1.24
2023-03-05T06:30:14.532Z,1.65
2023-03-05T06:45:15.096Z,1.76
2023-03-05T07:00:15.720Z,1.90
2023-03-05T07:15:16.328Z,2.06
2023-03-05T07:30:16.934Z,2.20
2023-03-05T07:45:17.528Z,2.43
2023-03-05T08:00:18.146Z,2.43
2023-03-05T08:15:18.736Z,2.96
2023-03-05T08:30:20.398Z,3.62
2023-03-05T08:45:21.369Z,3.88
2023-03-05T09:00:21.577Z,4.18
2023-03-05T09:15:22.180Z,4.06
2023-03-05T09:30:22.620Z,3.76
2023-03-05T09:45:22.990Z,3.75
2023-03-05T10:00:24.112Z,3.75
2023-03-05T10:15:24.197Z,3.62
2023-03-05T10:30:24.306Z,4.18
2023-03-05T10:45:24.704Z,4.47
2023-03-05T11:00:24.958Z,4.34
2023-03-05T11:15:25.368Z,4.09
2023-03-05T11:30:26.507Z,4.89
2023-03-05T11:45:26.740Z,4.97
2023-03-05T12:00:26.747Z,4.41
2023-03-05T12:15:27.742Z,4.30
2023-03-05T12:30:27.950Z,4.77
2023-03-05T12:45:28.519Z,5.02
2023-03-05T13:00:29.211Z,5.15
2023-03-05T13:15:29.733Z,4.88
2023-03-05T13:30:30.357Z,4.70
2023-03-05T13:45:31.091Z,4.73
2023-03-05T14:00:31.644Z,4.69
2023-03-05T14:15:32.219Z,4.65
2023-03-05T14:30:32.905Z,4.55
2023-03-05T14:45:33.416Z,4.08
2023-03-05T15:00:34.039Z,4.02
2023-03-05T15:15:34.625Z,3.96
2023-03-05T15:30:35.209Z,3.91
2023-03-05T15:45:36.229Z,3.69
2023-03-05T16:00:36.490Z,3.55
2023-03-05T16:15:37.095Z,3.43
2023-03-05T16:30:37.188Z,3.29
2023-03-05T16:45:38.548Z,3.00
2023-03-05T17:00:38.790Z,2.74
2023-03-05T17:15:39.690Z,2.61
2023-03-05T17:30:39.923Z,2.41
2023-03-05T17:45:40.536Z,2.42
2023-03-05T18:00:41.096Z,2.16
2023-03-05T18:15:41.526Z,1.79
2023-03-05T18:30:41.758Z,1.58
2023-03-05T18:45:41.953Z,1.45
2023-03-05T19:00:42.550Z,1.32
2023-03-05T19:15:43.728Z,1.26
2023-03-05T19:30:44.328Z,1.29
2023-03-05T19:45:44.876Z,1.30
2023-03-05T20:00:45.461Z,1.27
2023-03-05T20:15:46.104Z,1.27
2023-03-05T20:30:46.667Z,1.27
2023-03-05T20:45:47.251Z,1.16
2023-03-05T21:00:48.335Z,1.15
2023-03-05T21:15:48.477Z,1.15
2023-03-05T21:30:49.545Z,1.09
2023-03-05T21:45:49.709Z,1.14
2023-03-05T22:00:50.380Z,1.16
2023-03-05T22:15:50.879Z,1.05
2023-03-05T22:30:51.702Z,1.00
2023-03-05T22:45:52.496Z,0.88
2023-03-05T23:00:52.692Z,0.93
2023-03-05T23:15:53.334Z,0.83
2023-03-05T23:30:54.430Z,0.80
2023-03-05T23:45:55.578Z,0.86
